Cushing Island, Maine
Current Conditions -  °F | °C
As of 7:51 AM on Sunday 23 Nov 2014 (Local Time) from KPWM Reporting Station
Scattered Clouds Scattered Clouds  
Wind Chill: 35°   Ceiling: Unl
Heat Index: 40°   Visibility: 10mi
Dew Point: 31°   Wind: 7mph
Humidity: 70%   Direction: 220°SW
Pressure: 30.05"   Gusts: NA
Location:  43.6801°N, 70.1969°W
Report Text: KPWM 231251Z 22006KT 10SM SCT120 04/M01 A3005 RMK AO2 SLP175 T00441006
Loading
Personal Weather Stations






























Interactive Weather Map New forecast layout! Learn more

10-Day Weather Forecast

Advertisements
Track Severe Weather on mobile